sensor_id;sensor_type;location;lat;lon;timestamp;pressure;altitude;pressure_sealevel;temperature;humidity
26443;BME280;5563;52.296;6.806;2023-07-02T00:00:40;100474.31;;;16.11;80.31
26443;BME280;5563;52.296;6.806;2023-07-02T00:03:15;100459.34;;;16.09;80.29
26443;BME280;5563;52.296;6.806;2023-07-02T00:05:42;100475.31;;;16.18;80.04
26443;BME280;5563;52.296;6.806;2023-07-02T00:08:15;100476.34;;;16.17;79.87
26443;BME280;5563;52.296;6.806;2023-07-02T00:10:50;100455.34;;;16.05;80.20
26443;BME280;5563;52.296;6.806;2023-07-02T00:13:17;100439.84;;;15.99;80.17
26443;BME280;5563;52.296;6.806;2023-07-02T00:15:51;100469.28;;;16.08;80.21
26443;BME280;5563;52.296;6.806;2023-07-02T00:18:18;100479.19;;;16.16;80.15
26443;BME280;5563;52.296;6.806;2023-07-02T00:20:51;100447.94;;;15.99;80.15
26443;BME280;5563;52.296;6.806;2023-07-02T00:23:25;100444.06;;;15.93;80.28
26443;BME280;5563;52.296;6.806;2023-07-02T00:25:58;100458.03;;;16.05;80.69
26443;BME280;5563;52.296;6.806;2023-07-02T00:28:25;100453.97;;;16.01;80.82
26443;BME280;5563;52.296;6.806;2023-07-02T00:30:58;100461.19;;;16.00;80.86
26443;BME280;5563;52.296;6.806;2023-07-02T00:33:25;100447.41;;;15.95;80.74
26443;BME280;5563;52.296;6.806;2023-07-02T00:35:59;100477.84;;;16.12;81.08
26443;BME280;5563;52.296;6.806;2023-07-02T00:38:33;100467.25;;;16.02;81.05
26443;BME280;5563;52.296;6.806;2023-07-02T00:41:00;100465.56;;;16.09;81.30
26443;BME280;5563;52.296;6.806;2023-07-02T00:43:34;100456.66;;;16.01;81.93
26443;BME280;5563;52.296;6.806;2023-07-02T00:46:02;100469.97;;;16.10;81.81
26443;BME280;5563;52.296;6.806;2023-07-02T00:48:35;100473.97;;;16.06;82.07
26443;BME280;5563;52.296;6.806;2023-07-02T00:51:03;100457.34;;;16.03;82.47
26443;BME280;5563;52.296;6.806;2023-07-02T00:53:36;100440.53;;;15.85;83.13
26443;BME280;5563;52.296;6.806;2023-07-02T00:56:04;100465.91;;;15.98;83.50
26443;BME280;5563;52.296;6.806;2023-07-02T00:58:41;100471.09;;;16.00;83.47
26443;BME280;5563;52.296;6.806;2023-07-02T01:01:22;100473.28;;;15.96;83.71
26443;BME280;5563;52.296;6.806;2023-07-02T01:04:03;100450.63;;;15.91;83.71
26443;BME280;5563;52.296;6.806;2023-07-02T01:06:33;100468.59;;;15.98;84.35
26443;BME280;5563;52.296;6.806;2023-07-02T01:09:15;100451.78;;;15.88;84.26
26443;BME280;5563;52.296;6.806;2023-07-02T01:11:50;100462.69;;;15.95;84.38
26443;BME280;5563;52.296;6.806;2023-07-02T01:14:30;100443.56;;;15.82;84.48
26443;BME280;5563;52.296;6.806;2023-07-02T01:16:59;100455.13;;;15.82;84.58
26443;BME280;5563;52.296;6.806;2023-07-02T01:19:50;100482.19;;;15.97;84.84
26443;BME280;5563;52.296;6.806;2023-07-02T01:22:24;100450.59;;;15.83;84.72
26443;BME280;5563;52.296;6.806;2023-07-02T01:25:01;100455.31;;;15.89;84.73
26443;BME280;5563;52.296;6.806;2023-07-02T01:27:29;100480.03;;;16.00;84.85
26443;BME280;5563;52.296;6.806;2023-07-02T01:30:03;100469.94;;;15.94;84.86
26443;BME280;5563;52.296;6.806;2023-07-02T01:32:37;100459.34;;;15.85;85.05
26443;BME280;5563;52.296;6.806;2023-07-02T01:35:11;100486.91;;;15.95;85.65
26443;BME280;5563;52.296;6.806;2023-07-02T01:37:38;100478.66;;;15.88;85.79
26443;BME280;5563;52.296;6.806;2023-07-02T01:40:12;100473.81;;;15.84;86.02
26443;BME280;5563;52.296;6.806;2023-07-02T01:42:46;100456.47;;;15.70;86.37
26443;BME280;5563;52.296;6.806;2023-07-02T01:45:13;100477.50;;;15.75;86.27
26443;BME280;5563;52.296;6.806;2023-07-02T01:47:47;100474.97;;;15.73;86.03
26443;BME280;5563;52.296;6.806;2023-07-02T01:50:15;100463.16;;;15.66;85.94
26443;BME280;5563;52.296;6.806;2023-07-02T01:52:50;100468.03;;;15.63;86.04
26443;BME280;5563;52.296;6.806;2023-07-02T01:55:17;100480.81;;;15.69;86.04
26443;BME280;5563;52.296;6.806;2023-07-02T01:57:50;100458.31;;;15.54;86.06
26443;BME280;5563;52.296;6.806;2023-07-02T02:00:18;100485.69;;;15.65;86.13
26443;BME280;5563;52.296;6.806;2023-07-02T02:02:51;100486.19;;;15.61;85.85
26443;BME280;5563;52.296;6.806;2023-07-02T02:05:19;100501.31;;;15.70;85.81
26443;BME280;5563;52.296;6.806;2023-07-02T02:08:03;100484.16;;;15.55;85.23
26443;BME280;5563;52.296;6.806;2023-07-02T02:10:43;100466.66;;;15.43;84.74
26443;BME280;5563;52.296;6.806;2023-07-02T02:13:18;100474.72;;;15.51;84.97
26443;BME280;5563;52.296;6.806;2023-07-02T02:15:45;100499.25;;;15.56;84.49
26443;BME280;5563;52.296;6.806;2023-07-02T02:18:20;100511.03;;;15.55;84.62
26443;BME280;5563;52.296;6.806;2023-07-02T02:20:53;100485.66;;;15.41;84.30
26443;BME280;5563;52.296;6.806;2023-07-02T02:23:20;100514.22;;;15.50;84.67
26443;BME280;5563;52.296;6.806;2023-07-02T02:25:53;100487.75;;;15.30;84.55
26443;BME280;5563;52.296;6.806;2023-07-02T02:28:26;100504.03;;;15.36;84.10
26443;BME280;5563;52.296;6.806;2023-07-02T02:31:00;100506.38;;;15.31;84.35
26443;BME280;5563;52.296;6.806;2023-07-02T02:33:35;100497.97;;;15.26;84.60
26443;BME280;5563;52.296;6.806;2023-07-02T02:36:08;100503.34;;;15.26;85.04
26443;BME280;5563;52.296;6.806;2023-07-02T02:38:35;100493.72;;;15.15;84.93
26443;BME280;5563;52.296;6.806;2023-07-02T02:41:10;100483.31;;;15.12;85.15
26443;BME280;5563;52.296;6.806;2023-07-02T02:43:41;100515.78;;;15.27;85.03
26443;BME280;5563;52.296;6.806;2023-07-02T02:46:22;100506.31;;;15.15;84.84
26443;BME280;5563;52.296;6.806;2023-07-02T02:48:50;100517.03;;;15.15;85.47
26443;BME280;5563;52.296;6.806;2023-07-02T02:51:23;100518.06;;;15.14;85.43
26443;BME280;5563;52.296;6.806;2023-07-02T02:53:50;100500.19;;;14.97;85.46
26443;BME280;5563;52.296;6.806;2023-07-02T02:56:27;100506.38;;;14.97;85.76
26443;BME280;5563;52.296;6.806;2023-07-02T02:59:00;100513.09;;;14.93;85.80
26443;BME280;5563;52.296;6.806;2023-07-02T03:01:33;100526.88;;;14.98;86.06
26443;BME280;5563;52.296;6.806;2023-07-02T03:04:00;100496.22;;;14.75;85.86
26443;BME280;5563;52.296;6.806;2023-07-02T03:06:35;100490.09;;;14.65;85.82
26443;BME280;5563;52.296;6.806;2023-07-02T03:09:08;100496.81;;;14.61;85.73
26443;BME280;5563;52.296;6.806;2023-07-02T03:11:41;100536.63;;;14.74;85.98
26443;BME280;5563;52.296;6.806;2023-07-02T03:14:14;100543.31;;;14.70;86.35
26443;BME280;5563;52.296;6.806;2023-07-02T03:16:42;100549.28;;;14.64;86.43
26443;BME280;5563;52.296;6.806;2023-07-02T03:19:15;100525.50;;;14.43;86.22
26443;BME280;5563;52.296;6.806;2023-07-02T03:21:45;100535.22;;;14.44;86.29
26443;BME280;5563;52.296;6.806;2023-07-02T03:24:21;100546.13;;;14.43;86.15
26443;BME280;5563;52.296;6.806;2023-07-02T03:26:51;100513.41;;;14.22;85.84
26443;BME280;5563;52.296;6.806;2023-07-02T03:29:27;100548.38;;;14.30;85.99
26443;BME280;5563;52.296;6.806;2023-07-02T03:32:06;100548.38;;;14.30;85.83
26443;BME280;5563;52.296;6.806;2023-07-02T03:34:43;100549.81;;;14.24;85.74
26443;BME280;5563;52.296;6.806;2023-07-02T03:37:10;100558.13;;;14.21;85.53
26443;BME280;5563;52.296;6.806;2023-07-02T03:39:46;100546.19;;;14.16;85.38
26443;BME280;5563;52.296;6.806;2023-07-02T03:42:13;100532.41;;;14.10;85.45
26443;BME280;5563;52.296;6.806;2023-07-02T03:44:40;100546.72;;;14.19;85.53
26443;BME280;5563;52.296;6.806;2023-07-02T03:47:23;100557.31;;;14.21;85.68
26443;BME280;5563;52.296;6.806;2023-07-02T03:49:50;100548.31;;;14.12;85.73
26443;BME280;5563;52.296;6.806;2023-07-02T03:52:23;100553.78;;;14.20;85.68
26443;BME280;5563;52.296;6.806;2023-07-02T03:55:08;100562.34;;;14.24;86.00
26443;BME280;5563;52.296;6.806;2023-07-02T03:57:47;100537.59;;;14.12;85.99
26443;BME280;5563;52.296;6.806;2023-07-02T04:00:14;100541.66;;;14.16;86.14
26443;BME280;5563;52.296;6.806;2023-07-02T04:02:47;100560.53;;;14.24;86.23
26443;BME280;5563;52.296;6.806;2023-07-02T04:05:18;100554.75;;;14.19;86.30
26443;BME280;5563;52.296;6.806;2023-07-02T04:07:52;100553.09;;;14.18;86.70
26443;BME280;5563;52.296;6.806;2023-07-02T04:10:26;100552.56;;;14.15;86.44
26443;BME280;5563;52.296;6.806;2023-07-02T04:13:06;100554.91;;;14.18;86.26
26443;BME280;5563;52.296;6.806;2023-07-02T04:15:38;100560.97;;;14.20;86.08
26443;BME280;5563;52.296;6.806;2023-07-02T04:18:12;100550.41;;;14.18;85.73
26443;BME280;5563;52.296;6.806;2023-07-02T04:20:55;100576.53;;;14.34;85.78
26443;BME280;5563;52.296;6.806;2023-07-02T04:23:29;100585.75;;;14.31;85.74
26443;BME280;5563;52.296;6.806;2023-07-02T04:25:57;100565.88;;;14.24;85.65
26443;BME280;5563;52.296;6.806;2023-07-02T04:28:53;100557.44;;;14.19;85.03
26443;BME280;5563;52.296;6.806;2023-07-02T04:31:30;100570.03;;;14.19;84.75
26443;BME280;5563;52.296;6.806;2023-07-02T04:34:04;100557.59;;;14.18;84.68
26443;BME280;5563;52.296;6.806;2023-07-02T04:36:32;100576.63;;;14.24;84.31
26443;BME280;5563;52.296;6.806;2023-07-02T04:39:24;100577.19;;;14.28;84.32
26443;BME280;5563;52.296;6.806;2023-07-02T04:41:58;100572.88;;;14.17;84.04
26443;BME280;5563;52.296;6.806;2023-07-02T04:44:39;100587.59;;;14.31;83.79
26443;BME280;5563;52.296;6.806;2023-07-02T04:47:11;100574.91;;;14.23;83.96
26443;BME280;5563;52.296;6.806;2023-07-02T04:49:44;100575.53;;;14.17;83.72
26443;BME280;5563;52.296;6.806;2023-07-02T04:52:21;100590.16;;;14.23;83.75
26443;BME280;5563;52.296;6.806;2023-07-02T04:54:49;100602.00;;;14.30;83.57
26443;BME280;5563;52.296;6.806;2023-07-02T04:57:23;100590.84;;;14.25;83.50
26443;BME280;5563;52.296;6.806;2023-07-02T04:59:55;100604.22;;;14.34;83.59
26443;BME280;5563;52.296;6.806;2023-07-02T05:02:31;100583.38;;;14.28;83.33
26443;BME280;5563;52.296;6.806;2023-07-02T05:05:01;100600.94;;;14.40;82.96
26443;BME280;5563;52.296;6.806;2023-07-02T05:07:40;100589.78;;;14.35;82.50
26443;BME280;5563;52.296;6.806;2023-07-02T05:10:21;100601.75;;;14.41;81.97
26443;BME280;5563;52.296;6.806;2023-07-02T05:12:57;100593.16;;;14.37;81.92
26443;BME280;5563;52.296;6.806;2023-07-02T05:15:25;100608.81;;;14.42;81.88
26443;BME280;5563;52.296;6.806;2023-07-02T05:18:01;100611.88;;;14.47;81.56
26443;BME280;5563;52.296;6.806;2023-07-02T05:20:28;100612.19;;;14.44;81.43
26443;BME280;5563;52.296;6.806;2023-07-02T05:23:04;100596.16;;;14.34;80.99
26443;BME280;5563;52.296;6.806;2023-07-02T05:25:38;100611.88;;;14.47;80.86
26443;BME280;5563;52.296;6.806;2023-07-02T05:28:12;100602.59;;;14.41;80.46
26443;BME280;5563;52.296;6.806;2023-07-02T05:30:45;100617.31;;;14.55;80.18
26443;BME280;5563;52.296;6.806;2023-07-02T05:33:13;100639.38;;;14.66;79.82
26443;BME280;5563;52.296;6.806;2023-07-02T05:35:50;100621.75;;;14.64;79.46
26443;BME280;5563;52.296;6.806;2023-07-02T05:38:21;100622.06;;;14.61;79.08
26443;BME280;5563;52.296;6.806;2023-07-02T05:40:55;100642.44;;;14.71;79.00
26443;BME280;5563;52.296;6.806;2023-07-02T05:43:24;100628.34;;;14.69;78.51
26443;BME280;5563;52.296;6.806;2023-07-02T05:46:01;100623.13;;;14.68;78.66
26443;BME280;5563;52.296;6.806;2023-07-02T05:48:35;100613.53;;;14.65;78.89
26443;BME280;5563;52.296;6.806;2023-07-02T05:51:12;100636.00;;;14.82;78.20
26443;BME280;5563;52.296;6.806;2023-07-02T05:53:46;100610.06;;;14.73;77.87
26443;BME280;5563;52.296;6.806;2023-07-02T05:56:13;100619.19;;;14.80;77.45
26443;BME280;5563;52.296;6.806;2023-07-02T05:58:48;100646.31;;;14.94;77.23
26443;BME280;5563;52.296;6.806;2023-07-02T06:01:18;100641.31;;;14.99;77.49
26443;BME280;5563;52.296;6.806;2023-07-02T06:03:54;100636.28;;;14.96;77.59
26443;BME280;5563;52.296;6.806;2023-07-02T06:06:28;100619.78;;;14.91;76.21
26443;BME280;5563;52.296;6.806;2023-07-02T06:09:16;100632.28;;;15.00;76.70
26443;BME280;5563;52.296;6.806;2023-07-02T06:11:58;100633.09;;;15.01;76.28
26443;BME280;5563;52.296;6.806;2023-07-02T06:14:32;100650.78;;;15.11;75.76
26443;BME280;5563;52.296;6.806;2023-07-02T06:16:58;100627.44;;;15.04;76.19
26443;BME280;5563;52.296;6.806;2023-07-02T06:19:35;100641.09;;;15.18;75.30
26443;BME280;5563;52.296;6.806;2023-07-02T06:22:10;100630.88;;;15.22;75.80
26443;BME280;5563;52.296;6.806;2023-07-02T06:24:43;100656.88;;;15.39;75.11
26443;BME280;5563;52.296;6.806;2023-07-02T06:27:11;100639.19;;;15.29;74.88
26443;BME280;5563;52.296;6.806;2023-07-02T06:29:45;100639.03;;;15.38;75.14
26443;BME280;5563;52.296;6.806;2023-07-02T06:32:12;100657.09;;;15.46;73.57
26443;BME280;5563;52.296;6.806;2023-07-02T06:34:45;100656.75;;;15.49;73.67
26443;BME280;5563;52.296;6.806;2023-07-02T06:37:13;100649.38;;;15.51;72.55
26443;BME280;5563;52.296;6.806;2023-07-02T06:39:46;100656.81;;;15.57;72.03
26443;BME280;5563;52.296;6.806;2023-07-02T06:42:16;100663.56;;;15.61;71.30
26443;BME280;5563;52.296;6.806;2023-07-02T06:44:43;100686.47;;;15.73;72.13
26443;BME280;5563;52.296;6.806;2023-07-02T06:47:17;100672.00;;;15.74;71.57
26443;BME280;5563;52.296;6.806;2023-07-02T06:49:46;100649.63;;;15.65;71.27
26443;BME280;5563;52.296;6.806;2023-07-02T06:52:25;100684.13;;;15.78;71.74
26443;BME280;5563;52.296;6.806;2023-07-02T06:54:52;100684.16;;;15.86;71.32
26443;BME280;5563;52.296;6.806;2023-07-02T06:57:27;100689.78;;;16.00;71.18
26443;BME280;5563;52.296;6.806;2023-07-02T06:59:58;100674.31;;;15.94;69.93
26443;BME280;5563;52.296;6.806;2023-07-02T07:02:33;100667.09;;;16.03;69.92
26443;BME280;5563;52.296;6.806;2023-07-02T07:05:00;100711.75;;;16.30;70.25
26443;BME280;5563;52.296;6.806;2023-07-02T07:07:39;100699.44;;;16.27;69.66
26443;BME280;5563;52.296;6.806;2023-07-02T07:10:13;100713.81;;;16.44;70.71
26443;BME280;5563;52.296;6.806;2023-07-02T07:12:49;100688.03;;;16.33;69.67
26443;BME280;5563;52.296;6.806;2023-07-02T07:15:23;100703.84;;;16.36;67.94
26443;BME280;5563;52.296;6.806;2023-07-02T07:17:56;100689.53;;;16.36;68.86
26443;BME280;5563;52.296;6.806;2023-07-02T07:20:24;100696.47;;;16.38;67.94
26443;BME280;5563;52.296;6.806;2023-07-02T07:22:58;100717.47;;;16.43;68.24
26443;BME280;5563;52.296;6.806;2023-07-02T07:25:32;100725.63;;;16.51;69.04
26443;BME280;5563;52.296;6.806;2023-07-02T07:27:59;100717.88;;;16.48;68.04
26443;BME280;5563;52.296;6.806;2023-07-02T07:30:34;100708.88;;;16.31;66.28
26443;BME280;5563;52.296;6.806;2023-07-02T07:33:01;100722.03;;;16.42;66.57
26443;BME280;5563;52.296;6.806;2023-07-02T07:35:35;100723.38;;;16.46;66.43
26443;BME280;5563;52.296;6.806;2023-07-02T07:38:02;100706.06;;;16.41;67.09
26443;BME280;5563;52.296;6.806;2023-07-02T07:40:35;100748.88;;;16.68;66.77
26443;BME280;5563;52.296;6.806;2023-07-02T07:43:02;100727.66;;;16.65;66.09
26443;BME280;5563;52.296;6.806;2023-07-02T07:45:37;100718.06;;;16.62;66.06
26443;BME280;5563;52.296;6.806;2023-07-02T07:48:06;100729.34;;;16.66;66.13
26443;BME280;5563;52.296;6.806;2023-07-02T07:50:39;100726.00;;;16.72;65.48
26443;BME280;5563;52.296;6.806;2023-07-02T07:53:14;100723.50;;;16.94;65.39
26443;BME280;5563;52.296;6.806;2023-07-02T07:55:47;100727.38;;;17.08;64.89
26443;BME280;5563;52.296;6.806;2023-07-02T07:58:14;100734.09;;;17.36;63.48
26443;BME280;5563;52.296;6.806;2023-07-02T08:00:48;100751.28;;;17.51;63.19
26443;BME280;5563;52.296;6.806;2023-07-02T08:03:23;100732.41;;;17.35;62.67
26443;BME280;5563;52.296;6.806;2023-07-02T08:05:57;100728.88;;;17.10;63.18
26443;BME280;5563;52.296;6.806;2023-07-02T08:08:31;100733.59;;;16.92;64.10
26443;BME280;5563;52.296;6.806;2023-07-02T08:11:04;100748.91;;;16.84;64.07
26443;BME280;5563;52.296;6.806;2023-07-02T08:13:38;100753.59;;;16.82;64.82
26443;BME280;5563;52.296;6.806;2023-07-02T08:16:05;100749.41;;;16.79;64.73
26443;BME280;5563;52.296;6.806;2023-07-02T08:18:39;100749.44;;;17.03;64.16
26443;BME280;5563;52.296;6.806;2023-07-02T08:21:06;100733.59;;;17.24;63.77
26443;BME280;5563;52.296;6.806;2023-07-02T08:23:42;100729.06;;;17.25;62.21
26443;BME280;5563;52.296;6.806;2023-07-02T08:26:10;100744.22;;;17.34;62.66
26443;BME280;5563;52.296;6.806;2023-07-02T08:28:48;100758.53;;;17.43;61.00
26443;BME280;5563;52.296;6.806;2023-07-02T08:31:21;100750.59;;;17.41;61.51
26443;BME280;5563;52.296;6.806;2023-07-02T08:33:55;100760.38;;;17.34;62.16
26443;BME280;5563;52.296;6.806;2023-07-02T08:36:22;100738.66;;;17.19;62.72
26443;BME280;5563;52.296;6.806;2023-07-02T08:38:56;100773.50;;;17.37;63.03
26443;BME280;5563;52.296;6.806;2023-07-02T08:41:30;100759.72;;;17.24;61.68
26443;BME280;5563;52.296;6.806;2023-07-02T08:44:04;100749.44;;;17.27;59.33
26443;BME280;5563;52.296;6.806;2023-07-02T08:46:31;100758.69;;;17.41;58.64
26443;BME280;5563;52.296;6.806;2023-07-02T08:49:06;100773.38;;;17.55;56.41
26443;BME280;5563;52.296;6.806;2023-07-02T08:51:44;100787.72;;;17.47;57.33
26443;BME280;5563;52.296;6.806;2023-07-02T08:54:12;100791.38;;;17.46;59.14
26443;BME280;5563;52.296;6.806;2023-07-02T08:56:46;100800.47;;;17.45;58.57
26443;BME280;5563;52.296;6.806;2023-07-02T08:59:13;100794.78;;;17.48;59.12
26443;BME280;5563;52.296;6.806;2023-07-02T09:01:50;100787.19;;;17.52;59.06
26443;BME280;5563;52.296;6.806;2023-07-02T09:04:22;100797.63;;;17.55;58.47
26443;BME280;5563;52.296;6.806;2023-07-02T09:07:05;100796.09;;;17.60;58.33
26443;BME280;5563;52.296;6.806;2023-07-02T09:09:33;100794.25;;;17.77;57.83
26443;BME280;5563;52.296;6.806;2023-07-02T09:12:30;100787.28;;;17.98;56.83
26443;BME280;5563;52.296;6.806;2023-07-02T09:15:04;100776.53;;;17.82;56.07
26443;BME280;5563;52.296;6.806;2023-07-02T09:17:39;100793.41;;;17.84;52.87
26443;BME280;5563;52.296;6.806;2023-07-02T09:20:07;100801.34;;;17.70;55.29
26443;BME280;5563;52.296;6.806;2023-07-02T09:22:42;100789.53;;;17.63;55.92
26443;BME280;5563;52.296;6.806;2023-07-02T09:25:09;100793.09;;;17.55;57.53
26443;BME280;5563;52.296;6.806;2023-07-02T09:28:00;100809.44;;;17.54;55.85
26443;BME280;5563;52.296;6.806;2023-07-02T09:30:34;100811.63;;;17.50;55.45
26443;BME280;5563;52.296;6.806;2023-07-02T09:33:07;100799.31;;;17.72;54.61
26443;BME280;5563;52.296;6.806;2023-07-02T09:35:34;100794.44;;;18.30;50.49
26443;BME280;5563;52.296;6.806;2023-07-02T09:38:08;100791.66;;;18.54;50.83
26443;BME280;5563;52.296;6.806;2023-07-02T09:40:38;100789.91;;;18.69;47.46
26443;BME280;5563;52.296;6.806;2023-07-02T09:43:17;100797.06;;;18.85;48.52
26443;BME280;5563;52.296;6.806;2023-07-02T09:45:54;100794.78;;;18.96;48.30
26443;BME280;5563;52.296;6.806;2023-07-02T09:48:29;100798.16;;;18.98;49.00
26443;BME280;5563;52.296;6.806;2023-07-02T09:51:07;100796.06;;;19.08;48.98
26443;BME280;5563;52.296;6.806;2023-07-02T09:53:42;100802.28;;;19.40;47.60
26443;BME280;5563;52.296;6.806;2023-07-02T09:56:09;100801.16;;;19.26;49.61
26443;BME280;5563;52.296;6.806;2023-07-02T09:58:44;100805.00;;;19.09;48.17
26443;BME280;5563;52.296;6.806;2023-07-02T10:01:19;100793.03;;;18.81;46.75
26443;BME280;5563;52.296;6.806;2023-07-02T10:03:53;100791.06;;;18.97;47.48
26443;BME280;5563;52.296;6.806;2023-07-02T10:06:20;100791.66;;;19.30;47.33
26443;BME280;5563;52.296;6.806;2023-07-02T10:08:55;100805.78;;;19.63;47.43
26443;BME280;5563;52.296;6.806;2023-07-02T10:11:34;100797.91;;;19.76;44.84
26443;BME280;5563;52.296;6.806;2023-07-02T10:14:08;100806.97;;;19.83;44.91
26443;BME280;5563;52.296;6.806;2023-07-02T10:16:54;100814.47;;;19.73;43.34
26443;BME280;5563;52.296;6.806;2023-07-02T10:19:28;100806.50;;;19.57;44.57
26443;BME280;5563;52.296;6.806;2023-07-02T10:22:03;100796.34;;;19.59;44.58
26443;BME280;5563;52.296;6.806;2023-07-02T10:27:37;100809.19;;;19.94;43.28
26443;BME280;5563;52.296;6.806;2023-07-02T10:30:11;100816.78;;;20.13;42.00
26443;BME280;5563;52.296;6.806;2023-07-02T10:32:44;100814.75;;;20.29;40.70
26443;BME280;5563;52.296;6.806;2023-07-02T10:35:14;100811.72;;;20.10;42.83
26443;BME280;5563;52.296;6.806;2023-07-02T10:37:48;100842.22;;;19.89;41.21
26443;BME280;5563;52.296;6.806;2023-07-02T10:40:16;100845.16;;;20.02;42.94
26443;BME280;5563;52.296;6.806;2023-07-02T10:42:51;100822.47;;;20.03;42.34
26443;BME280;5563;52.296;6.806;2023-07-02T10:45:32;100835.59;;;20.29;42.54
26443;BME280;5563;52.296;6.806;2023-07-02T10:48:09;100828.66;;;20.56;42.05
26443;BME280;5563;52.296;6.806;2023-07-02T10:50:42;100822.59;;;20.68;42.73
26443;BME280;5563;52.296;6.806;2023-07-02T10:53:15;100841.97;;;20.86;41.54
26443;BME280;5563;52.296;6.806;2023-07-02T10:55:56;100837.16;;;20.53;40.08
26443;BME280;5563;52.296;6.806;2023-07-02T10:58:30;100805.09;;;19.98;42.24
26443;BME280;5563;52.296;6.806;2023-07-02T11:01:04;100829.84;;;19.95;40.27
26443;BME280;5563;52.296;6.806;2023-07-02T11:03:38;100816.69;;;19.92;42.39
26443;BME280;5563;52.296;6.806;2023-07-02T11:06:12;100810.31;;;19.99;41.55
26443;BME280;5563;52.296;6.806;2023-07-02T11:08:39;100847.81;;;20.39;41.64
26443;BME280;5563;52.296;6.806;2023-07-02T11:11:19;100843.97;;;20.63;42.28
26443;BME280;5563;52.296;6.806;2023-07-02T11:13:53;100837.06;;;20.75;41.58
26443;BME280;5563;52.296;6.806;2023-07-02T11:16:35;100842.22;;;21.06;41.80
26443;BME280;5563;52.296;6.806;2023-07-02T11:19:50;100842.44;;;21.25;39.75
26443;BME280;5563;52.296;6.806;2023-07-02T11:22:52;100849.22;;;21.15;39.40
26443;BME280;5563;52.296;6.806;2023-07-02T11:26:13;100849.72;;;20.89;39.34
26443;BME280;5563;52.296;6.806;2023-07-02T11:29:32;100841.88;;;20.80;40.05
26443;BME280;5563;52.296;6.806;2023-07-02T11:33:01;100841.47;;;20.97;40.20
26443;BME280;5563;52.296;6.806;2023-07-02T11:35:56;100818.13;;;20.96;40.09
26443;BME280;5563;52.296;6.806;2023-07-02T11:39:26;100840.31;;;21.21;40.63
26443;BME280;5563;52.296;6.806;2023-07-02T11:42:29;100844.25;;;21.39;40.73
26443;BME280;5563;52.296;6.806;2023-07-02T11:45:47;100854.47;;;21.59;40.34
26443;BME280;5563;52.296;6.806;2023-07-02T11:48:49;100855.66;;;21.50;40.03
26443;BME280;5563;52.296;6.806;2023-07-02T11:51:56;100830.63;;;21.33;39.17
26443;BME280;5563;52.296;6.806;2023-07-02T11:54:58;100850.06;;;21.36;38.60
26443;BME280;5563;52.296;6.806;2023-07-02T11:58:15;100824.16;;;21.34;38.31
26443;BME280;5563;52.296;6.806;2023-07-02T12:01:16;100856.81;;;21.83;37.27
26443;BME280;5563;52.296;6.806;2023-07-02T12:04:33;100867.44;;;21.63;37.68
26443;BME280;5563;52.296;6.806;2023-07-02T12:07:43;100853.50;;;21.45;37.29
26443;BME280;5563;52.296;6.806;2023-07-02T12:11:19;100855.25;;;21.53;37.69
26443;BME280;5563;52.296;6.806;2023-07-02T12:14:25;100866.34;;;21.15;36.38
26443;BME280;5563;52.296;6.806;2023-07-02T12:17:31;100869.72;;;20.88;37.63
26443;BME280;5563;52.296;6.806;2023-07-02T12:20:39;100866.66;;;20.91;37.57
26443;BME280;5563;52.296;6.806;2023-07-02T12:23:45;100873.50;;;21.23;37.08
26443;BME280;5563;52.296;6.806;2023-07-02T12:26:52;100870.75;;;21.59;36.26
26443;BME280;5563;52.296;6.806;2023-07-02T12:29:58;100876.75;;;21.75;35.41
26443;BME280;5563;52.296;6.806;2023-07-02T12:33:04;100876.16;;;21.37;35.64
26443;BME280;5563;52.296;6.806;2023-07-02T12:36:10;100888.34;;;21.27;36.11
26443;BME280;5563;52.296;6.806;2023-07-02T12:39:38;100877.56;;;21.12;35.97
26443;BME280;5563;52.296;6.806;2023-07-02T12:42:48;100878.59;;;21.32;37.59
26443;BME280;5563;52.296;6.806;2023-07-02T12:45:44;100874.25;;;21.53;34.15
26443;BME280;5563;52.296;6.806;2023-07-02T12:48:56;100876.78;;;21.18;35.25
26443;BME280;5563;52.296;6.806;2023-07-02T12:51:58;100880.13;;;21.56;37.23
26443;BME280;5563;52.296;6.806;2023-07-02T12:55:10;100894.09;;;21.95;35.89
26443;BME280;5563;52.296;6.806;2023-07-02T12:58:28;100888.69;;;22.02;36.16
26443;BME280;5563;52.296;6.806;2023-07-02T13:01:38;100883.19;;;22.16;33.84
26443;BME280;5563;52.296;6.806;2023-07-02T13:04:40;100895.19;;;22.01;33.93
26443;BME280;5563;52.296;6.806;2023-07-02T13:07:42;100903.44;;;21.93;34.57
26443;BME280;5563;52.296;6.806;2023-07-02T13:10:52;100905.91;;;21.88;34.59
26443;BME280;5563;52.296;6.806;2023-07-02T13:13:57;100906.13;;;22.14;35.71
26443;BME280;5563;52.296;6.806;2023-07-02T13:17:14;100897.78;;;22.43;34.20
26443;BME280;5563;52.296;6.806;2023-07-02T13:20:24;100914.88;;;22.58;34.30
26443;BME280;5563;52.296;6.806;2023-07-02T13:23:38;100905.19;;;22.00;33.54
26443;BME280;5563;52.296;6.806;2023-07-02T13:26:52;100911.22;;;21.75;34.31
26443;BME280;5563;52.296;6.806;2023-07-02T13:29:52;100894.03;;;21.89;35.03
